createdAt,value
2018-12-07T00:02:20.008Z,7.00
2018-12-07T00:04:48.270Z,7.80
2018-12-07T00:07:21.744Z,7.50
2018-12-07T00:09:50.586Z,7.10
2018-12-07T00:12:24.709Z,7.53
2018-12-07T00:14:54.263Z,6.50
2018-12-07T00:17:23.105Z,6.63
2018-12-07T00:19:58.924Z,7.57
2018-12-07T00:22:28.034Z,8.27
2018-12-07T00:24:56.177Z,8.53
2018-12-07T00:27:24.655Z,8.30
2018-12-07T00:29:52.832Z,7.93
2018-12-07T00:32:21.599Z,8.53
2018-12-07T00:34:50.265Z,8.63
2018-12-07T00:37:18.687Z,9.47
2018-12-07T00:39:53.011Z,8.90
2018-12-07T00:42:21.939Z,8.83
2018-12-07T00:44:50.262Z,9.70
2018-12-07T00:47:19.051Z,8.10
2018-12-07T00:49:47.634Z,9.60
2018-12-07T00:52:16.101Z,9.00
2018-12-07T00:54:44.789Z,8.90
2018-12-07T01:03:26.452Z,7.37
2018-12-07T01:05:54.853Z,8.70
2018-12-07T01:08:23.583Z,9.50
2018-12-07T01:10:52.206Z,8.57
2018-12-07T01:13:20.443Z,8.10
2018-12-07T01:15:50.249Z,8.43
2018-12-07T01:18:18.663Z,8.30
2018-12-07T01:20:47.899Z,8.07
2018-12-07T01:23:17.104Z,8.37
2018-12-07T01:25:46.925Z,8.20
2018-12-07T01:28:15.365Z,7.37
2018-12-07T01:30:43.709Z,6.97
2018-12-07T01:33:12.098Z,7.00
2018-12-07T01:35:40.462Z,6.30
2018-12-07T01:38:08.676Z,6.37
2018-12-07T01:40:37.017Z,6.30
2018-12-07T01:43:05.338Z,6.00
2018-12-07T01:45:33.602Z,6.13
2018-12-07T01:48:01.840Z,5.80
2018-12-07T01:50:30.301Z,6.87
2018-12-07T01:52:58.803Z,6.33
2018-12-07T01:55:27.227Z,6.80
2018-12-07T01:57:55.644Z,6.97
2018-12-07T02:00:23.842Z,6.90
2018-12-07T02:02:52.686Z,7.17
2018-12-07T02:05:20.860Z,7.37
2018-12-07T02:07:49.484Z,6.93
2018-12-07T02:10:18.664Z,7.20
2018-12-07T02:12:47.122Z,6.90
2018-12-07T02:15:16.130Z,5.70
2018-12-07T02:17:44.423Z,5.70
2018-12-07T02:20:12.892Z,5.67
2018-12-07T02:22:41.581Z,5.77
2018-12-07T02:25:09.767Z,5.73
2018-12-07T02:27:43.338Z,5.40
2018-12-07T02:30:12.338Z,5.17
2018-12-07T02:32:41.252Z,5.77
2018-12-07T02:35:10.218Z,5.80
2018-12-07T02:37:38.633Z,5.80
2018-12-07T02:40:07.515Z,7.50
2018-12-07T02:42:35.893Z,7.40
2018-12-07T02:45:04.906Z,6.43
2018-12-07T02:47:33.298Z,6.80
2018-12-07T02:50:01.485Z,6.13
2018-12-07T02:52:29.623Z,6.70
2018-12-07T02:54:58.471Z,6.07
2018-12-07T02:57:26.925Z,5.63
2018-12-07T02:59:55.336Z,6.00
2018-12-07T03:02:23.661Z,6.30
2018-12-07T03:04:52.741Z,5.70
2018-12-07T03:07:22.897Z,5.23
2018-12-07T03:09:54.319Z,4.50
2018-12-07T03:12:22.900Z,4.13
2018-12-07T03:14:51.133Z,4.17
2018-12-07T03:17:19.385Z,3.53
2018-12-07T03:19:48.506Z,3.17
2018-12-07T03:22:16.658Z,3.23
2018-12-07T03:24:44.909Z,3.73
2018-12-07T03:27:13.251Z,3.17
2018-12-07T03:29:53.120Z,3.13
2018-12-07T03:32:21.935Z,2.90
2018-12-07T03:34:50.166Z,3.13
2018-12-07T03:37:18.467Z,3.00
2018-12-07T03:39:52.789Z,2.97
2018-12-07T03:42:21.011Z,3.13
2018-12-07T03:44:49.284Z,3.40
2018-12-07T03:47:17.477Z,3.90
2018-12-07T03:49:45.894Z,4.20
2018-12-07T03:52:14.235Z,3.33
2018-12-07T03:54:42.514Z,3.20
2018-12-07T03:57:10.968Z,3.13
2018-12-07T03:59:51.287Z,3.90
2018-12-07T04:02:19.670Z,4.60
2018-12-07T04:04:47.842Z,5.80
2018-12-07T04:07:17.185Z,5.97
2018-12-07T04:09:45.549Z,7.50
2018-12-07T04:12:13.699Z,7.97
2018-12-07T04:14:41.833Z,7.13
2018-12-07T04:17:10.067Z,7.57
2018-12-07T04:19:38.399Z,7.40
2018-12-07T04:22:06.667Z,8.53
2018-12-07T04:24:34.949Z,7.50
2018-12-07T04:27:03.325Z,6.77
2018-12-07T04:29:37.109Z,7.30
2018-12-07T04:32:05.577Z,6.60
2018-12-07T04:34:33.824Z,7.10
2018-12-07T04:37:02.187Z,6.23
2018-12-07T04:39:31.839Z,6.57
2018-12-07T04:42:00.496Z,6.83
2018-12-07T04:44:29.357Z,6.97
2018-12-07T04:46:57.838Z,7.27
2018-12-07T04:49:26.529Z,6.83
2018-12-07T04:51:54.847Z,7.00
2018-12-07T04:54:23.194Z,6.70
2018-12-07T04:56:51.372Z,6.10
2018-12-07T04:59:19.942Z,7.47
2018-12-07T05:04:36.161Z,7.33
2018-12-07T05:07:05.517Z,6.77
2018-12-07T05:09:34.429Z,6.30
2018-12-07T05:12:02.760Z,6.43
2018-12-07T05:14:31.343Z,6.57
2018-12-07T05:16:59.999Z,7.63
2018-12-07T05:19:32.778Z,8.17
2018-12-07T05:22:01.864Z,6.53
2018-12-07T05:24:30.598Z,7.63
2018-12-07T05:26:59.632Z,7.17
2018-12-07T05:29:28.651Z,7.50
2018-12-07T05:31:57.512Z,8.13
2018-12-07T05:34:26.038Z,8.43
2018-12-07T05:36:54.554Z,8.90
2018-12-07T05:39:23.093Z,8.07
2018-12-07T05:41:51.657Z,9.37
2018-12-07T05:44:20.446Z,7.97
2018-12-07T05:46:49.155Z,8.90
2018-12-07T05:49:17.441Z,7.30
2018-12-07T05:51:45.788Z,8.10
2018-12-07T05:54:14.915Z,7.87
2018-12-07T05:56:43.146Z,7.53
2018-12-07T05:59:11.872Z,8.10
2018-12-07T06:01:40.695Z,8.67
2018-12-07T06:04:09.210Z,8.10
2018-12-07T06:06:37.414Z,7.13
2018-12-07T06:09:07.296Z,8.77
2018-12-07T06:11:35.438Z,8.67
2018-12-07T06:14:03.976Z,8.60
2018-12-07T06:16:32.590Z,10.30
2018-12-07T06:19:02.537Z,9.43
2018-12-07T06:21:31.232Z,10.40
2018-12-07T06:24:00.244Z,8.43
2018-12-07T06:26:28.916Z,11.13
2018-12-07T06:28:57.096Z,10.17
2018-12-07T06:31:25.519Z,10.00
2018-12-07T06:33:54.290Z,9.00
2018-12-07T06:36:24.900Z,9.83
2018-12-07T06:38:58.525Z,9.07
2018-12-07T06:43:39.374Z,9.53
2018-12-07T06:49:11.099Z,9.87
2018-12-07T06:51:42.153Z,10.23
2018-12-07T07:07:24.093Z,8.63
2018-12-07T07:12:40.106Z,11.23
2018-12-07T07:15:18.116Z,11.67
2018-12-07T07:17:52.430Z,11.53
2018-12-07T07:33:44.327Z,12.43
2018-12-07T07:39:11.603Z,12.47
2018-12-07T07:41:40.161Z,13.23
2018-12-07T07:44:08.313Z,12.87
2018-12-07T07:46:36.482Z,12.20
2018-12-07T07:49:04.818Z,11.17
2018-12-07T07:51:33.153Z,11.00
2018-12-07T07:54:01.387Z,10.77
2018-12-07T07:56:29.720Z,10.93
2018-12-07T08:01:54.658Z,10.17
2018-12-07T08:04:22.972Z,10.53
2018-12-07T08:06:52.468Z,10.40
2018-12-07T08:09:22.530Z,10.63
2018-12-07T08:11:51.465Z,11.60
2018-12-07T08:14:19.706Z,12.40
2018-12-07T08:16:48.168Z,12.70
2018-12-07T08:22:03.710Z,12.77
2018-12-07T08:24:33.013Z,13.67
2018-12-07T08:27:01.495Z,14.73
2018-12-07T08:35:22.539Z,15.57
2018-12-07T08:37:51.074Z,15.93
2018-12-07T08:43:08.564Z,14.93
2018-12-07T08:45:36.817Z,14.50
2018-12-07T08:48:05.093Z,14.43
2018-12-07T08:50:33.355Z,12.47
2018-12-07T08:53:01.997Z,14.10
2018-12-07T08:58:16.478Z,13.90
2018-12-07T09:00:51.545Z,12.60
2018-12-07T09:03:20.094Z,12.67
2018-12-07T09:05:50.519Z,12.30
2018-12-07T09:08:19.071Z,11.63
2018-12-07T09:13:43.988Z,11.30
2018-12-07T09:16:12.192Z,11.90
2018-12-07T09:18:41.176Z,12.80
2018-12-07T09:21:16.189Z,12.40
2018-12-07T09:23:49.570Z,12.67
2018-12-07T09:26:15.376Z,13.13
2018-12-07T09:28:43.917Z,12.93
2018-12-07T09:31:24.973Z,11.60
2018-12-07T09:33:54.456Z,12.23
2018-12-07T09:36:22.678Z,11.37
2018-12-07T09:41:46.423Z,10.27
2018-12-07T09:44:27.644Z,9.67
2018-12-07T09:46:56.222Z,9.97
2018-12-07T09:49:40.893Z,9.03
2018-12-07T09:52:09.405Z,8.23
2018-12-07T09:54:37.631Z,9.23
2018-12-07T09:57:06.753Z,7.40
2018-12-07T09:59:43.221Z,7.80
2018-12-07T10:02:11.703Z,8.30
2018-12-07T10:04:39.988Z,7.90
2018-12-07T10:07:09.364Z,8.60
2018-12-07T10:09:45.238Z,9.20
2018-12-07T10:12:16.090Z,9.17
2018-12-07T10:14:44.566Z,8.47
2018-12-07T10:17:12.791Z,8.63
2018-12-07T10:19:53.991Z,7.83
2018-12-07T10:22:22.523Z,9.37
2018-12-07T10:24:51.002Z,9.00
2018-12-07T10:27:24.893Z,9.23
2018-12-07T10:32:48.369Z,9.53
2018-12-07T10:41:03.602Z,10.33
2018-12-07T10:43:34.009Z,10.33
2018-12-07T11:24:07.578Z,10.00
2018-12-07T11:26:43.317Z,10.80
2018-12-07T11:29:16.428Z,10.57
2018-12-07T11:31:50.332Z,9.70
2018-12-07T11:34:25.670Z,9.70
2018-12-07T11:36:53.965Z,10.03
2018-12-07T11:39:28.653Z,9.20
2018-12-07T11:41:57.541Z,9.47
2018-12-07T11:44:26.869Z,9.03
2018-12-07T11:47:00.518Z,8.43
2018-12-07T11:49:39.460Z,8.30
2018-12-07T11:52:08.037Z,7.17
2018-12-07T11:54:45.858Z,6.80
2018-12-07T12:00:08.473Z,7.20
2018-12-07T12:02:37.589Z,7.60
2018-12-07T12:05:06.076Z,7.03
2018-12-07T12:07:36.579Z,6.87
2018-12-07T12:10:22.735Z,6.67
2018-12-07T12:15:41.408Z,6.77
2018-12-07T12:18:10.633Z,6.03
2018-12-07T12:23:37.798Z,4.40
2018-12-07T12:26:08.020Z,5.50
2018-12-07T12:28:38.934Z,4.33
2018-12-07T12:31:07.958Z,3.80
2018-12-07T12:33:37.612Z,4.17
2018-12-07T12:36:06.497Z,3.27
2018-12-07T12:38:36.444Z,4.70
2018-12-07T12:50:07.711Z,4.53
2018-12-07T12:52:37.012Z,3.80
2018-12-07T12:55:06.231Z,3.63
2018-12-07T12:57:37.584Z,3.63
2018-12-07T13:00:13.642Z,4.00
2018-12-07T13:11:45.790Z,3.70
2018-12-07T13:14:17.913Z,3.70
2018-12-07T13:16:49.241Z,3.50
2018-12-07T13:19:18.401Z,3.60
2018-12-07T13:21:51.882Z,3.40
2018-12-07T13:24:23.210Z,3.57
2018-12-07T13:27:03.577Z,3.67
2018-12-07T13:29:38.381Z,3.50
2018-12-07T13:32:13.256Z,4.00
2018-12-07T13:34:51.088Z,4.03
2018-12-07T13:37:26.195Z,4.10
2018-12-07T14:23:57.000Z,5.50
2018-12-07T14:32:38.322Z,5.77
2018-12-07T14:38:16.265Z,6.77
2018-12-07T14:46:54.081Z,5.83
2018-12-07T14:58:17.914Z,2.30
2018-12-07T15:03:55.385Z,4.17
2018-12-07T15:06:23.786Z,3.43
2018-12-07T15:08:52.543Z,3.37
2018-12-07T15:11:20.987Z,3.23
2018-12-07T15:13:49.664Z,3.00
2018-12-07T15:16:18.183Z,3.07
2018-12-07T15:18:52.831Z,3.87
2018-12-07T15:21:22.495Z,3.57
2018-12-07T15:23:50.974Z,4.10
2018-12-07T15:26:19.488Z,4.30
2018-12-07T15:28:48.102Z,2.63
2018-12-07T15:31:16.669Z,2.87
2018-12-07T15:33:48.419Z,3.50
2018-12-07T15:36:16.750Z,2.67
2018-12-07T15:38:46.087Z,2.30
2018-12-07T15:41:14.700Z,2.80
2018-12-07T15:46:50.793Z,2.67
2018-12-07T15:49:19.083Z,2.77
2018-12-07T15:51:47.305Z,3.57
2018-12-07T15:54:15.660Z,2.93
2018-12-07T15:56:44.508Z,2.60
2018-12-07T15:59:12.750Z,2.93
2018-12-07T16:01:40.985Z,2.30
2018-12-07T16:04:09.989Z,2.70
2018-12-07T16:06:38.270Z,2.90
2018-12-07T16:09:07.519Z,4.13
2018-12-07T16:11:35.865Z,3.30
2018-12-07T16:14:04.199Z,2.90
2018-12-07T16:16:32.597Z,2.47
2018-12-07T16:19:01.019Z,2.73
2018-12-07T16:21:29.423Z,3.23
2018-12-07T16:23:57.811Z,2.30
2018-12-07T16:26:26.084Z,2.33
2018-12-07T16:28:54.673Z,3.73
2018-12-07T16:31:22.919Z,3.20
2018-12-07T16:33:51.099Z,3.87
2018-12-07T16:36:19.499Z,3.10
2018-12-07T16:38:47.779Z,2.60
2018-12-07T16:41:16.253Z,2.33
2018-12-07T16:43:44.608Z,2.60
2018-12-07T16:46:13.027Z,2.60
2018-12-07T16:48:41.551Z,2.30
2018-12-07T16:51:09.982Z,2.80
2018-12-07T16:53:38.654Z,2.50
2018-12-07T16:56:07.097Z,2.17
2018-12-07T16:58:35.444Z,2.13
2018-12-07T17:01:03.718Z,2.27
2018-12-07T17:03:32.103Z,2.47
2018-12-07T17:06:00.220Z,2.63
2018-12-07T17:08:28.412Z,2.80
2018-12-07T17:10:56.622Z,2.47
2018-12-07T17:13:24.808Z,2.27
2018-12-07T17:15:53.233Z,3.17
2018-12-07T17:18:21.998Z,3.80
2018-12-07T17:20:50.422Z,2.43
2018-12-07T17:23:18.732Z,3.13
2018-12-07T17:25:47.087Z,2.90
2018-12-07T17:28:15.516Z,3.33
2018-12-07T17:30:44.038Z,3.00
2018-12-07T17:33:13.488Z,2.40
2018-12-07T17:35:42.525Z,2.47
2018-12-07T17:38:11.015Z,3.10
2018-12-07T17:40:39.493Z,2.90
2018-12-07T17:43:07.863Z,3.27
2018-12-07T17:45:36.042Z,2.87
2018-12-07T17:48:04.328Z,2.80
2018-12-07T17:50:32.580Z,3.50
2018-12-07T17:53:00.862Z,3.03
2018-12-07T17:55:29.149Z,3.87
2018-12-07T17:57:57.645Z,5.10
2018-12-07T18:00:25.987Z,3.33
2018-12-07T18:02:54.220Z,3.70
2018-12-07T18:05:22.426Z,4.20
2018-12-07T18:07:50.659Z,3.63
2018-12-07T18:10:18.762Z,3.57
2018-12-07T18:12:47.185Z,4.00
2018-12-07T18:15:27.276Z,3.60
2018-12-07T18:59:18.071Z,2.70
2018-12-07T19:01:48.156Z,3.53
2018-12-07T19:04:18.995Z,2.97
2018-12-07T19:06:52.927Z,2.67
2018-12-07T19:18:23.155Z,2.70
2018-12-07T19:23:49.380Z,3.80
2018-12-07T19:26:18.772Z,2.43
2018-12-07T19:28:52.168Z,2.53
2018-12-07T19:34:16.971Z,3.10
2018-12-07T19:36:47.791Z,3.17
2018-12-07T19:39:21.711Z,3.03
2018-12-07T20:25:55.296Z,2.73
2018-12-07T20:31:10.621Z,3.60
2018-12-07T20:33:39.013Z,2.70
2018-12-07T20:36:07.325Z,2.37
2018-12-07T20:38:35.881Z,2.43
2018-12-07T20:41:05.553Z,2.93
2018-12-07T20:43:34.114Z,2.23
2018-12-07T20:46:03.126Z,2.67
2018-12-07T20:48:31.543Z,2.77
2018-12-07T20:51:00.410Z,2.53
2018-12-07T20:53:29.089Z,3.10
2018-12-07T20:55:57.351Z,2.47
2018-12-07T20:58:26.417Z,2.43
2018-12-07T21:00:59.468Z,2.83
2018-12-07T21:04:36.013Z,3.57
2018-12-07T21:08:10.810Z,2.97
2018-12-07T21:10:57.226Z,2.20
2018-12-07T21:13:47.223Z,2.67
2018-12-07T21:20:19.283Z,1.90
2018-12-07T21:22:47.360Z,2.30
2018-12-07T21:25:15.838Z,2.90
2018-12-07T21:27:44.178Z,2.20
2018-12-07T21:31:21.634Z,2.60
2018-12-07T21:34:59.186Z,2.77
2018-12-07T21:37:27.517Z,2.90
2018-12-07T21:40:05.452Z,2.83
2018-12-07T21:42:33.720Z,2.70
2018-12-07T21:45:01.987Z,2.30
2018-12-07T21:47:44.023Z,2.30
2018-12-07T21:50:14.254Z,3.07
2018-12-07T21:52:43.006Z,3.13
2018-12-07T21:55:11.656Z,2.80
2018-12-07T21:57:39.888Z,2.23
2018-12-07T22:00:07.994Z,2.77
2018-12-07T22:02:36.366Z,2.90
2018-12-07T22:05:04.677Z,2.67
2018-12-07T22:07:33.309Z,2.47
2018-12-07T22:10:01.789Z,2.40
2018-12-07T22:12:30.321Z,2.53
2018-12-07T22:15:00.296Z,2.60
2018-12-07T22:20:59.146Z,2.57
2018-12-07T22:23:27.731Z,2.97
2018-12-07T22:25:55.986Z,3.20
2018-12-07T22:28:24.935Z,2.27
2018-12-07T22:30:53.887Z,3.03
2018-12-07T22:33:22.537Z,3.17
2018-12-07T22:35:51.978Z,2.67
2018-12-07T22:38:20.990Z,3.20
2018-12-07T22:40:50.162Z,2.77
2018-12-07T22:43:18.659Z,2.13
2018-12-07T22:45:46.887Z,2.57
2018-12-07T22:48:15.344Z,2.47
2018-12-07T22:50:43.688Z,2.53
2018-12-07T22:53:11.791Z,2.57
2018-12-07T22:55:40.447Z,2.07
2018-12-07T22:58:08.637Z,3.47
2018-12-07T23:00:38.762Z,2.60
2018-12-07T23:03:06.928Z,2.60
2018-12-07T23:05:35.438Z,2.03
2018-12-07T23:08:03.575Z,2.50
2018-12-07T23:10:31.666Z,1.93
2018-12-07T23:12:59.729Z,1.90
2018-12-07T23:15:27.798Z,2.67
2018-12-07T23:17:55.905Z,1.93
2018-12-07T23:20:24.222Z,2.47
2018-12-07T23:22:52.352Z,2.77
2018-12-07T23:25:20.449Z,2.63
2018-12-07T23:27:48.629Z,2.50
2018-12-07T23:30:16.851Z,2.53
2018-12-07T23:32:45.044Z,3.00
2018-12-07T23:35:13.151Z,2.20
2018-12-07T23:37:41.932Z,2.73
2018-12-07T23:40:10.063Z,2.40
2018-12-07T23:42:38.246Z,2.60
2018-12-07T23:45:06.465Z,2.40
2018-12-07T23:47:34.721Z,2.40
2018-12-07T23:50:02.917Z,2.33
2018-12-07T23:52:31.045Z,3.17
2018-12-07T23:54:59.155Z,2.33
2018-12-07T23:57:27.265Z,2.80
2018-12-07T23:59:55.438Z,2.43
